Time;durP1;ratioP1;P1;durP2;ratioP2;P2;SDS_P1;SDS_P2;PMS_P1;PMS_P2;Temp;Humidity;BMP_temperature;BMP_pressure;BME280_temperature;BME280_humidity;BME280_pressure;Samples;Min_cycle;Max_cycle;Signal;HPM_P1;HPM_P2
2022/10/31 00:00:46;;;;;;;7.90;5.00;;;;;;;20.11;59.54;102143.06;4843704;29;20362;-53
2022/10/31 00:03:13;;;;;;;7.32;4.95;;;;;;;20.12;59.58;102141.22;4855216;29;20065;-54
2022/10/31 00:05:42;;;;;;;8.02;5.22;;;;;;;20.09;59.53;102139.63;4859978;29;20626;-53
2022/10/31 00:08:08;;;;;;;7.00;4.80;;;;;;;20.10;60.06;102145.88;4853090;29;20056;-50
2022/10/31 00:10:40;;;;;;;8.80;5.20;;;;;;;20.10;59.88;102145.88;4854956;29;20080;-54
2022/10/31 00:13:07;;;;;;;7.45;5.15;;;;;;;20.10;60.13;102148.56;4853690;29;20056;-54
2022/10/31 00:15:35;;;;;;;7.70;4.97;;;;;;;20.10;59.82;102148.56;4851204;29;20049;-53
2022/10/31 00:18:03;;;;;;;8.05;4.97;;;;;;;20.08;59.76;102148.69;4851448;29;20049;-53
2022/10/31 00:20:30;;;;;;;7.43;4.63;;;;;;;20.10;59.82;102148.56;4848828;29;20391;-52
2022/10/31 00:23:00;;;;;;;7.72;5.15;;;;;;;20.08;59.40;102156.78;4849113;29;20053;-53
2022/10/31 00:25:28;;;;;;;8.32;4.80;;;;;;;20.07;60.08;102148.84;4849285;29;20077;-54
2022/10/31 00:27:55;;;;;;;6.60;4.50;;;;;;;20.07;60.04;102157.78;4854350;29;20407;-53
2022/10/31 00:30:22;;;;;;;7.40;4.70;;;;;;;20.07;59.56;102154.22;4852007;29;20137;-54
2022/10/31 00:32:49;;;;;;;7.53;4.55;;;;;;;20.05;59.40;102157.03;4851826;29;20358;-53
2022/10/31 00:35:15;;;;;;;6.53;4.63;;;;;;;20.05;59.64;102148.97;4856270;29;20050;-54
2022/10/31 00:37:42;;;;;;;6.38;4.65;;;;;;;20.05;59.47;102148.97;4853475;29;20350;-52
2022/10/31 00:40:09;;;;;;;7.03;4.07;;;;;;;20.03;59.98;102150.97;4859344;29;20053;-52
2022/10/31 00:42:36;;;;;;;6.90;4.22;;;;;;;20.04;59.97;102149.97;4855702;29;20122;-51
2022/10/31 00:45:02;;;;;;;6.82;4.40;;;;;;;20.04;59.91;102158.03;4849451;29;20499;-53
2022/10/31 00:47:29;;;;;;;6.45;4.20;;;;;;;20.03;59.25;102167.09;4855777;29;20045;-51
2022/10/31 00:49:55;;;;;;;6.25;4.35;;;;;;;20.02;59.85;102165.41;4851667;29;20053;-49
2022/10/31 00:52:22;;;;;;;6.10;4.28;;;;;;;20.02;59.44;102165.41;4850918;29;20053;-52
2022/10/31 00:54:48;;;;;;;7.38;4.22;;;;;;;20.01;59.98;102166.38;4840010;29;20057;-53
2022/10/31 00:57:15;;;;;;;7.15;4.20;;;;;;;20.01;59.16;102163.69;4850535;29;20060;-54
2022/10/31 00:59:41;;;;;;;6.93;4.38;;;;;;;20.00;59.40;102170.06;4851521;29;20049;-53
2022/10/31 01:02:08;;;;;;;7.25;4.55;;;;;;;20.00;59.55;102161.13;4853040;29;20054;-53
2022/10/31 01:04:34;;;;;;;6.82;4.38;;;;;;;19.98;59.36;102163.97;4854692;29;20057;-54
2022/10/31 01:07:01;;;;;;;6.20;4.35;;;;;;;19.99;59.96;102160.28;4850083;29;20054;-51
2022/10/31 01:09:27;;;;;;;7.10;3.80;;;;;;;19.99;59.64;102168.38;4861053;29;20061;-53
2022/10/31 01:11:54;;;;;;;5.82;4.10;;;;;;;19.98;59.82;102166.66;4852522;29;20053;-53
2022/10/31 01:14:20;;;;;;;5.47;3.65;;;;;;;19.97;59.43;102152.31;4853103;29;20053;-51
2022/10/31 01:16:47;;;;;;;6.43;4.15;;;;;;;19.96;59.73;102149.78;4854537;29;20419;-54
2022/10/31 01:19:13;;;;;;;5.63;3.70;;;;;;;19.96;59.84;102147.09;4853490;29;20123;-54
2022/10/31 01:21:40;;;;;;;5.95;3.85;;;;;;;19.94;59.97;102152.63;4850129;29;20066;-52
2022/10/31 01:24:06;;;;;;;4.75;3.53;;;;;;;19.95;59.42;102140.88;4856925;29;20450;-51
2022/10/31 01:26:33;;;;;;;6.18;4.13;;;;;;;19.94;59.28;102127.56;4849747;29;20426;-51
2022/10/31 01:29:04;;;;;;;6.25;3.80;;;;;;;19.94;59.52;102132.94;4852232;29;20323;-53
2022/10/31 01:31:37;;;;;;;5.57;3.78;;;;;;;19.92;60.00;102135.75;4853856;29;20060;-53
2022/10/31 01:34:04;;;;;;;5.88;3.90;;;;;;;19.92;59.17;102141.13;4851885;29;20056;-53
2022/10/31 01:36:36;;;;;;;5.93;3.92;;;;;;;19.91;59.76;102131.34;4849301;29;20140;-50
2022/10/31 01:39:14;;;;;;;5.68;3.65;;;;;;;19.90;59.70;102126.09;4851253;29;20049;-51
2022/10/31 01:41:43;;;;;;;6.05;3.70;;;;;;;19.90;59.54;102128.78;4848885;29;20061;-51
2022/10/31 01:44:15;;;;;;;5.60;3.67;;;;;;;19.90;59.14;102136.84;4849558;29;20061;-52
2022/10/31 01:46:50;;;;;;;6.05;3.65;;;;;;;19.88;59.85;102120.84;4854029;29;20132;-49
2022/10/31 01:49:22;;;;;;;4.47;2.90;;;;;;;19.89;59.96;102119.00;4852600;29;20310;-51
2022/10/31 01:52:01;;;;;;;5.20;3.38;;;;;;;19.88;59.90;102120.00;4853591;29;20065;-53
2022/10/31 01:54:32;;;;;;;5.22;3.58;;;;;;;19.88;59.60;102122.69;4854579;29;20066;-53
2022/10/31 01:56:59;;;;;;;5.30;3.95;;;;;;;19.86;59.74;102120.16;4849899;29;20053;-50
2022/10/31 01:59:30;;;;;;;6.03;4.05;;;;;;;19.86;59.84;102121.97;4854749;29;20050;-52
2022/10/31 02:01:57;;;;;;;5.68;3.50;;;;;;;19.85;59.23;102118.44;4851838;29;20438;-51
2022/10/31 02:04:25;;;;;;;4.70;3.22;;;;;;;19.84;59.93;102123.94;4848573;29;20053;-53
2022/10/31 02:07:07;;;;;;;5.47;3.20;;;;;;;19.84;59.44;102121.25;4850776;29;20054;-51
2022/10/31 02:09:35;;;;;;;5.53;3.70;;;;;;;19.82;59.71;102118.72;4849197;29;20426;-52
2022/10/31 02:12:02;;;;;;;4.72;3.30;;;;;;;19.83;60.08;102114.19;4849689;29;20068;-50
2022/10/31 02:14:31;;;;;;;4.38;3.47;;;;;;;19.83;59.29;102120.41;4849853;29;20160;-47
2022/10/31 02:16:58;;;;;;;4.38;3.22;;;;;;;19.82;59.79;102123.22;4848704;29;20057;-52
2022/10/31 02:19:33;;;;;;;5.20;3.70;;;;;;;19.81;60.01;102116.16;4850893;29;20069;-52
2022/10/31 02:22:12;;;;;;;4.70;3.20;;;;;;;19.81;59.29;102116.16;4853385;29;20399;-51
2022/10/31 02:25:06;;;;;;;4.20;2.95;;;;;;;19.78;59.97;102130.72;4852273;29;20513;-50
2022/10/31 02:28:14;;;;;;;4.43;2.92;;;;;;;19.78;59.43;102128.03;4853236;29;20050;-49
2022/10/31 02:30:52;;;;;;;4.22;3.10;;;;;;;19.79;59.87;102118.13;4831470;29;20054;-49
2022/10/31 02:33:34;;;;;;;4.35;3.15;;;;;;;19.78;60.13;102124.47;4853159;29;20054;-53
2022/10/31 02:36:28;;;;;;;5.15;3.38;;;;;;;19.76;59.45;102127.31;4856054;29;20053;-54
2022/10/31 02:39:15;;;;;;;5.35;3.22;;;;;;;19.76;60.17;102124.63;4849219;29;20050;-52
2022/10/31 02:41:47;;;;;;;5.22;3.28;;;;;;;19.76;59.46;102121.09;4850107;29;20053;-52
2022/10/31 02:44:41;;;;;;;4.95;3.40;;;;;;;19.73;59.95;102123.03;4850684;29;20077;-50
2022/10/31 02:47:17;;;;;;;4.20;3.08;;;;;;;19.74;59.60;102121.22;4849177;29;20102;-53
2022/10/31 02:50:02;;;;;;;4.75;2.88;;;;;;;19.74;59.35;102123.91;4850839;29;20402;-52
2022/10/31 02:52:31;;;;;;;5.38;2.83;;;;;;;19.73;59.80;102120.34;4850657;29;20061;-52
2022/10/31 02:54:57;;;;;;;5.15;2.90;;;;;;;19.73;59.57;102122.19;4849290;29;20474;-52
2022/10/31 02:57:34;;;;;;;3.92;2.92;;;;;;;19.71;59.47;102125.03;4850218;29;20053;-52
2022/10/31 03:00:07;;;;;;;3.88;2.85;;;;;;;19.71;60.02;102129.56;4856633;29;20370;-51
2022/10/31 03:02:36;;;;;;;3.15;2.58;;;;;;;19.71;59.89;102132.25;4848732;29;20434;-52
2022/10/31 03:05:10;;;;;;;4.00;3.00;;;;;;;19.70;59.69;102126.03;4857176;29;20402;-51
2022/10/31 03:08:16;;;;;;;4.30;3.05;;;;;;;19.67;59.55;102123.59;4855794;29;20050;-51
2022/10/31 03:10:57;;;;;;;4.43;3.10;;;;;;;19.69;60.01;102128.81;4836850;29;20438;-54
2022/10/31 03:13:32;;;;;;;4.15;2.65;;;;;;;19.68;59.44;102121.75;4857966;29;20445;-53
2022/10/31 03:16:16;;;;;;;3.90;2.80;;;;;;;19.68;59.88;102122.59;4852409;29;20072;-51
2022/10/31 03:18:51;;;;;;;4.75;2.85;;;;;;;19.66;59.46;102124.59;4854914;29;20046;-52
2022/10/31 03:21:27;;;;;;;3.50;2.85;;;;;;;19.67;59.82;102120.06;4856328;29;20057;-50
2022/10/31 03:23:56;;;;;;;3.92;2.80;;;;;;;19.66;59.79;102124.59;4852773;29;20342;-50
2022/10/31 03:26:24;;;;;;;4.40;3.20;;;;;;;19.66;59.86;102123.72;4855509;29;20056;-49
2022/10/31 03:28:59;;;;;;;3.55;2.83;;;;;;;19.65;59.43;102128.22;4853478;29;20098;-49
2022/10/31 03:31:30;;;;;;;4.20;3.15;;;;;;;19.64;59.25;102129.22;4850473;29;20106;-51
2022/10/31 03:33:59;;;;;;;3.72;2.90;;;;;;;19.63;59.42;102130.22;4856151;29;20045;-47
2022/10/31 03:36:28;;;;;;;5.40;3.40;;;;;;;19.64;59.88;102131.91;4856844;29;20049;-50
2022/10/31 03:38:56;;;;;;;4.03;2.72;;;;;;;19.63;60.00;102130.22;4852680;29;20049;-49
2022/10/31 03:41:28;;;;;;;3.78;3.10;;;;;;;19.62;59.88;102125.84;4859947;29;20080;-53
2022/10/31 03:44:00;;;;;;;4.45;2.78;;;;;;;19.63;59.93;102137.44;4854177;29;20053;-52
2022/10/31 03:46:27;;;;;;;3.90;2.60;;;;;;;19.62;59.92;102128.53;4854783;29;20053;-54
2022/10/31 03:48:54;;;;;;;5.38;3.20;;;;;;;19.62;59.27;102128.53;4857261;29;20057;-53
2022/10/31 03:51:30;;;;;;;3.35;2.58;;;;;;;19.60;59.66;102132.28;4850382;29;20423;-51
2022/10/31 03:54:08;;;;;;;3.33;2.53;;;;;;;19.61;59.99;102137.56;4856113;29;20090;-53
2022/10/31 03:56:40;;;;;;;3.90;2.72;;;;;;;19.60;59.20;102135.81;4853669;29;20438;-52
2022/10/31 03:59:16;;;;;;;3.67;2.80;;;;;;;19.58;59.31;102127.06;4851139;29;20102;-51
2022/10/31 04:01:49;;;;;;;4.35;2.67;;;;;;;19.59;59.37;102131.44;4857482;29;20327;-52
2022/10/31 04:04:16;;;;;;;2.93;2.47;;;;;;;19.58;59.37;102132.44;4853101;29;20049;-53
2022/10/31 04:06:45;;;;;;;4.15;2.88;;;;;;;19.58;59.91;102132.44;4852080;29;20050;-52
2022/10/31 04:09:13;;;;;;;4.18;2.55;;;;;;;19.59;60.12;102135.97;4851259;29;20053;-52
2022/10/31 04:11:45;;;;;;;4.35;2.70;;;;;;;19.57;59.75;102125.31;4854407;29;20053;-51
2022/10/31 04:14:12;;;;;;;3.50;2.58;;;;;;;19.57;59.77;102130.69;4852709;29;20323;-52
2022/10/31 04:16:42;;;;;;;3.45;2.60;;;;;;;19.55;59.58;102121.94;4855391;29;20068;-51
2022/10/31 04:19:10;;;;;;;3.95;2.42;;;;;;;19.53;59.50;102123.88;4854253;29;20114;-55
2022/10/31 04:21:37;;;;;;;3.42;2.58;;;;;;;19.55;59.55;102129.16;4851446;29;20541;-51
2022/10/31 04:24:04;;;;;;;3.55;3.08;;;;;;;19.54;59.28;102122.94;4856486;29;20057;-49
2022/10/31 04:26:30;;;;;;;4.32;2.50;;;;;;;19.53;59.57;102114.97;4850848;29;20448;-49
2022/10/31 04:28:57;;;;;;;4.40;2.72;;;;;;;19.53;59.81;102121.19;4850314;29;20045;-49
2022/10/31 04:31:23;;;;;;;3.70;2.53;;;;;;;19.52;59.81;102122.19;4853034;29;20046;-51
2022/10/31 04:33:49;;;;;;;3.22;2.30;;;;;;;19.52;59.58;102121.34;4850391;29;20064;-52
2022/10/31 04:36:16;;;;;;;4.57;2.70;;;;;;;19.52;59.06;102121.34;4851538;29;20380;-49
2022/10/31 04:38:42;;;;;;;3.97;3.08;;;;;;;19.52;59.62;102124.03;4852656;29;20049;-51
2022/10/31 04:41:09;;;;;;;4.65;2.80;;;;;;;19.51;59.41;102128.56;4851627;29;20050;-52
2022/10/31 04:43:35;;;;;;;5.88;3.22;;;;;;;19.51;59.44;102131.25;4849720;29;20054;-51
2022/10/31 04:46:02;;;;;;;4.18;2.50;;;;;;;19.51;59.91;102128.56;4850524;29;20434;-51
2022/10/31 04:48:28;;;;;;;3.63;2.33;;;;;;;19.49;59.82;102120.59;4852523;29;20053;-49
2022/10/31 04:50:59;;;;;;;4.55;2.97;;;;;;;19.50;59.67;102121.47;4855030;29;20061;-52
2022/10/31 04:53:26;;;;;;;5.70;2.58;;;;;;;19.49;59.39;102123.28;4854422;29;20061;-49
2022/10/31 04:55:52;;;;;;;4.40;2.95;;;;;;;19.48;59.71;102120.75;4854437;29;20062;-49
2022/10/31 04:58:19;;;;;;;3.42;2.60;;;;;;;19.48;59.75;102126.13;4850689;29;20087;-52
2022/10/31 05:00:45;;;;;;;4.55;2.80;;;;;;;19.47;59.28;102127.97;4857592;29;20065;-52
2022/10/31 05:03:12;;;;;;;2.80;2.30;;;;;;;19.46;59.31;102123.59;4851359;29;20376;-50
2022/10/31 05:05:38;;;;;;;4.15;2.60;;;;;;;19.46;59.96;102123.59;4850662;29;20049;-52
2022/10/31 05:08:05;;;;;;;2.88;2.28;;;;;;;19.45;59.92;102129.91;4850792;29;20446;-52
2022/10/31 05:10:31;;;;;;;3.47;2.70;;;;;;;19.46;59.33;102122.72;4852541;29;20050;-53
2022/10/31 05:13:00;;;;;;;4.05;2.80;;;;;;;19.46;59.12;102114.66;4856285;29;20068;-52
2022/10/31 05:15:28;;;;;;;3.65;2.83;;;;;;;19.45;59.17;102121.84;4851755;29;20050;-49
2022/10/31 05:17:55;;;;;;;4.80;2.95;;;;;;;19.43;59.69;102118.47;4855188;29;20057;-50
2022/10/31 05:20:25;;;;;;;3.58;2.78;;;;;;;19.43;59.79;102128.38;4853534;29;20045;-52
2022/10/31 05:22:53;;;;;;;3.72;2.60;;;;;;;19.42;59.71;102119.44;4855266;29;20072;-53
2022/10/31 05:25:21;;;;;;;3.97;2.80;;;;;;;19.43;59.27;102112.22;4852308;29;20057;-52
2022/10/31 05:27:50;;;;;;;3.88;2.72;;;;;;;19.41;59.30;102112.34;4851728;29;20053;-51
2022/10/31 05:30:23;;;;;;;3.53;2.83;;;;;;;19.41;59.02;102106.97;4855816;29;20049;-51
2022/10/31 05:32:50;;;;;;;3.88;2.60;;;;;;;19.40;59.82;102101.72;4850507;29;20089;-51
2022/10/31 05:35:26;;;;;;;5.72;2.63;;;;;;;19.40;59.18;102104.44;4849393;29;20327;-49
2022/10/31 05:37:52;;;;;;;4.50;2.45;;;;;;;19.39;59.47;102098.19;4855866;29;20373;-51
2022/10/31 05:40:20;;;;;;;3.63;2.58;;;;;;;19.39;59.21;102102.72;4854091;29;20390;-51
2022/10/31 05:42:47;;;;;;;4.53;2.58;;;;;;;19.39;59.23;102092.81;4854396;29;20061;-50
2022/10/31 05:45:16;;;;;;;3.42;2.70;;;;;;;19.38;59.62;102096.50;4850774;29;20057;-52
2022/10/31 05:47:58;;;;;;;5.55;3.15;;;;;;;19.39;59.17;102094.66;4850921;29;20064;-53
2022/10/31 05:50:27;;;;;;;4.13;2.55;;;;;;;19.38;59.04;102092.97;4850075;29;20466;-51
2022/10/31 05:53:01;;;;;;;4.95;2.90;;;;;;;19.36;59.85;102095.75;4849888;29;20056;-52
2022/10/31 05:55:28;;;;;;;4.25;2.92;;;;;;;19.37;59.81;102088.53;4853076;29;20057;-52
2022/10/31 05:57:55;;;;;;;4.75;2.65;;;;;;;19.36;59.75;102085.00;4853022;29;20050;-52
2022/10/31 06:00:24;;;;;;;4.03;2.63;;;;;;;19.35;59.62;102094.06;4853517;29;20058;-49
2022/10/31 06:03:04;;;;;;;3.65;2.70;;;;;;;19.35;59.81;102087.84;4851063;29;20058;-50
2022/10/31 06:05:32;;;;;;;4.00;2.70;;;;;;;19.35;59.07;102083.31;4859535;29;20077;-50
2022/10/31 06:07:58;;;;;;;3.85;2.80;;;;;;;19.35;59.11;102087.84;4853849;29;20469;-50
2022/10/31 06:10:26;;;;;;;4.40;2.85;;;;;;;19.34;59.41;102083.47;4853327;29;20151;-52
2022/10/31 06:12:53;;;;;;;6.32;2.90;;;;;;;19.33;59.64;102090.66;4853564;29;20049;-47
2022/10/31 06:15:19;;;;;;;4.00;2.80;;;;;;;19.31;59.26;102081.88;4850592;29;20064;-52
2022/10/31 06:18:04;;;;;;;3.25;2.50;;;;;;;19.31;59.34;102081.88;4852181;29;20145;-52
2022/10/31 06:20:31;;;;;;;5.18;2.38;;;;;;;19.31;59.09;102081.88;4849853;29;20056;-49
2022/10/31 06:22:58;;;;;;;4.40;2.83;;;;;;;19.31;59.71;102081.03;4848802;29;20061;-49
2022/10/31 06:25:26;;;;;;;3.50;2.40;;;;;;;19.30;59.78;102090.09;4850669;29;20060;-54
2022/10/31 06:27:52;;;;;;;5.88;2.97;;;;;;;19.31;59.20;102095.31;4853491;29;20066;-50
2022/10/31 06:30:19;;;;;;;5.10;2.72;;;;;;;19.31;59.72;102097.16;4851358;29;20053;-50
2022/10/31 06:32:45;;;;;;;6.32;3.20;;;;;;;19.30;59.18;102098.16;4852969;29;20091;-52
2022/10/31 06:35:12;;;;;;;4.43;2.90;;;;;;;19.29;59.18;102094.56;4851303;29;20053;-49
2022/10/31 06:37:39;;;;;;;4.88;2.83;;;;;;;19.30;59.66;102090.94;4851608;29;20061;-51
2022/10/31 06:40:05;;;;;;;5.88;3.42;;;;;;;19.30;59.32;102098.16;4857509;29;20437;-51
2022/10/31 06:42:32;;;;;;;4.22;3.05;;;;;;;19.29;59.46;102093.72;4859552;29;20069;-52
2022/10/31 06:44:58;;;;;;;5.25;3.10;;;;;;;19.29;59.58;102101.78;4858990;29;20387;-52
2022/10/31 06:47:25;;;;;;;7.07;3.40;;;;;;;19.29;59.35;102101.78;4854982;29;20433;-52
2022/10/31 06:49:51;;;;;;;5.75;3.63;;;;;;;19.28;59.81;102097.41;4859714;29;20341;-51
2022/10/31 06:52:18;;;;;;;6.40;3.40;;;;;;;19.29;59.70;102101.78;4853052;29;20472;-51
2022/10/31 06:54:44;;;;;;;6.78;3.13;;;;;;;19.28;59.26;102105.47;4854207;29;20073;-50
2022/10/31 06:57:11;;;;;;;4.85;3.17;;;;;;;19.28;59.27;102108.16;4856502;29;20061;-53
2022/10/31 06:59:37;;;;;;;4.38;2.92;;;;;;;19.27;59.70;102096.56;4852993;29;20049;-49
2022/10/31 07:02:04;;;;;;;4.68;3.10;;;;;;;19.26;59.24;102094.88;4855506;29;20050;-49
2022/10/31 07:04:31;;;;;;;4.80;3.15;;;;;;;19.27;59.35;102101.94;4854882;29;20116;-52
2022/10/31 07:06:57;;;;;;;6.20;3.45;;;;;;;19.28;59.84;102097.41;4854764;29;20049;-52
2022/10/31 07:09:24;;;;;;;6.07;3.25;;;;;;;19.27;59.89;102095.72;4853809;29;20088;-48
2022/10/31 07:11:52;;;;;;;5.28;3.10;;;;;;;19.27;59.72;102107.31;4855480;29;20053;-47
2022/10/31 07:14:19;;;;;;;5.15;3.22;;;;;;;19.28;59.89;102113.53;4854386;29;20457;-50
2022/10/31 07:16:50;;;;;;;4.05;2.95;;;;;;;19.27;59.53;102106.47;4855497;29;20061;-52
2022/10/31 07:19:17;;;;;;;4.95;3.00;;;;;;;19.27;59.18;102109.16;4856845;29;20345;-49
2022/10/31 07:21:43;;;;;;;5.28;3.20;;;;;;;19.27;59.57;102112.69;4852685;29;20065;-51
2022/10/31 07:24:10;;;;;;;5.53;2.97;;;;;;;19.26;59.36;102111.00;4854987;29;20064;-50
2022/10/31 07:26:36;;;;;;;4.53;3.13;;;;;;;19.25;59.37;102109.25;4854773;29;20350;-51
2022/10/31 07:29:03;;;;;;;5.97;3.25;;;;;;;19.27;59.18;102109.16;4853571;29;20050;-50
2022/10/31 07:31:29;;;;;;;4.93;3.50;;;;;;;19.27;59.35;102110.00;4858518;29;20080;-51
2022/10/31 07:33:56;;;;;;;4.63;3.03;;;;;;;19.27;59.58;102111.84;4852634;29;20049;-51
2022/10/31 07:36:22;;;;;;;4.97;3.30;;;;;;;19.27;59.25;102117.22;4853857;29;20061;-51
2022/10/31 07:38:49;;;;;;;6.43;3.50;;;;;;;19.28;59.43;102113.53;4852065;29;20064;-52
2022/10/31 07:41:16;;;;;;;5.45;3.22;;;;;;;19.28;59.42;102114.38;4849788;29;20319;-50
2022/10/31 07:43:42;;;;;;;4.32;3.05;;;;;;;19.28;59.06;102109.00;4852983;29;20140;-49
2022/10/31 07:46:09;;;;;;;6.78;3.90;;;;;;;19.29;59.24;102123.31;4853628;29;20046;-54
2022/10/31 07:48:35;;;;;;;7.88;2.97;;;;;;;19.29;59.03;102126.00;4853206;29;20057;-51
2022/10/31 07:51:02;;;;;;;6.47;3.15;;;;;;;19.29;59.62;102120.63;4853301;29;20046;-50
2022/10/31 07:53:28;;;;;;;6.40;3.42;;;;;;;19.30;59.11;102122.34;4855128;29;20064;-52
2022/10/31 07:55:55;;;;;;;5.18;3.38;;;;;;;19.32;59.55;102114.97;4853856;29;20106;-50
2022/10/31 07:58:21;;;;;;;5.88;3.47;;;;;;;19.31;58.95;102124.03;4855830;29;20705;-48
2022/10/31 08:00:48;;;;;;;4.28;3.00;;;;;;;19.32;59.51;102137.34;4859723;29;20064;-51
2022/10/31 08:03:17;;;;;;;6.97;3.38;;;;;;;19.33;59.08;102138.19;4842253;29;20345;-51
2022/10/31 08:05:47;;;;;;;5.65;3.25;;;;;;;19.33;59.49;102135.50;4851602;29;20061;-47
2022/10/31 08:08:14;;;;;;;5.25;3.42;;;;;;;19.34;59.58;102131.84;4853567;29;20088;-51
2022/10/31 08:10:41;;;;;;;5.28;3.20;;;;;;;19.35;59.69;102134.41;4851799;29;20050;-50
2022/10/31 08:13:11;;;;;;;6.95;3.33;;;;;;;19.36;59.06;102136.09;4855054;29;20053;-51
2022/10/31 08:15:41;;;;;;;5.60;3.40;;;;;;;19.37;59.38;102134.25;4853485;29;20346;-53
2022/10/31 08:18:14;;;;;;;5.45;3.58;;;;;;;19.37;59.43;102135.09;4855493;29;20140;-50
2022/10/31 08:20:42;;;;;;;5.97;3.30;;;;;;;19.38;59.39;102138.66;4853239;29;20075;-53
2022/10/31 08:23:11;;;;;;;5.03;3.35;;;;;;;19.38;59.04;102126.06;4850508;29;20345;-54
2022/10/31 08:25:37;;;;;;;4.28;3.15;;;;;;;19.39;59.08;102125.09;4850101;29;20092;-52
2022/10/31 08:28:06;;;;;;;7.50;3.33;;;;;;;19.39;59.11;102125.09;4852097;29;20053;-53
2022/10/31 08:30:34;;;;;;;3.80;2.53;;;;;;;19.40;58.99;102117.88;4855099;29;20070;-52
2022/10/31 08:33:16;;;;;;;5.53;3.22;;;;;;;19.40;59.27;102112.50;4850535;29;20057;-51
2022/10/31 08:35:43;;;;;;;5.57;2.90;;;;;;;19.41;59.43;102119.56;4861033;29;20057;-52
2022/10/31 08:38:12;;;;;;;7.90;3.70;;;;;;;19.42;59.09;102115.91;4855897;29;20678;-50
2022/10/31 08:40:39;;;;;;;6.55;3.17;;;;;;;19.43;59.20;102121.16;4855783;29;20136;-51
2022/10/31 08:43:11;;;;;;;6.20;3.13;;;;;;;19.43;58.82;102113.06;4855516;29;20057;-52
2022/10/31 08:45:37;;;;;;;4.43;3.35;;;;;;;19.45;59.34;102115.63;4855470;29;20065;-52
2022/10/31 08:48:08;;;;;;;5.15;3.22;;;;;;;19.45;59.16;102116.47;4852897;29;20354;-51
2022/10/31 08:50:35;;;;;;;4.45;3.25;;;;;;;19.45;59.31;102111.09;4852114;29;20061;-50
2022/10/31 08:53:09;;;;;;;4.75;2.88;;;;;;;19.46;59.35;102096.69;4853069;29;20057;-51
2022/10/31 08:55:36;;;;;;;4.15;2.92;;;;;;;19.48;59.06;102096.53;4848697;29;20057;-54
2022/10/31 08:58:05;;;;;;;4.70;3.20;;;;;;;19.49;59.31;102096.41;4849422;29;20060;-51
2022/10/31 09:00:33;;;;;;;4.88;2.88;;;;;;;19.50;58.94;102097.28;4853230;29;20041;-51
2022/10/31 09:03:03;;;;;;;4.82;2.97;;;;;;;19.52;59.13;102097.13;4851675;29;20050;-51
2022/10/31 09:05:30;;;;;;;5.32;3.28;;;;;;;19.52;58.72;102089.91;4850061;29;20049;-52
2022/10/31 09:08:01;;;;;;;5.50;2.85;;;;;;;19.53;59.13;102096.16;4852495;29;20054;-51
2022/10/31 09:10:30;;;;;;;5.95;3.10;;;;;;;19.55;59.32;102091.50;4848619;29;20128;-52
2022/10/31 09:13:01;;;;;;;5.15;2.83;;;;;;;19.56;58.58;102080.59;4854561;29;20076;-49
2022/10/31 09:15:28;;;;;;;3.80;2.63;;;;;;;19.57;58.91;102076.91;4852756;29;20115;-49
2022/10/31 09:17:54;;;;;;;6.05;3.08;;;;;;;19.58;58.90;102073.25;4854241;29;20350;-50
2022/10/31 09:20:21;;;;;;;5.72;3.25;;;;;;;19.61;59.54;102075.69;4856101;29;20049;-51
2022/10/31 09:22:54;;;;;;;6.30;3.35;;;;;;;19.62;58.62;102069.34;4848710;29;20085;-51
2022/10/31 09:25:21;;;;;;;5.82;2.88;;;;;;;19.65;58.65;102069.06;4852409;29;20466;-49
2022/10/31 09:27:47;;;;;;;5.90;3.20;;;;;;;19.67;59.09;102072.47;4850947;29;20106;-51
2022/10/31 09:30:14;;;;;;;4.45;2.70;;;;;;;19.68;58.49;102068.78;4852518;29;20353;-49
2022/10/31 09:32:40;;;;;;;5.50;3.35;;;;;;;19.69;59.00;102058.88;4852514;29;20453;-52
2022/10/31 09:35:07;;;;;;;5.47;3.35;;;;;;;19.70;58.63;102050.69;4853158;29;20057;-51
2022/10/31 09:37:34;;;;;;;5.10;3.55;;;;;;;19.72;59.03;102059.47;4849597;29;20433;-49
2022/10/31 09:40:01;;;;;;;7.53;2.90;;;;;;;19.75;59.20;102062.88;4851733;29;20053;-49
2022/10/31 09:42:33;;;;;;;4.68;3.00;;;;;;;19.76;58.26;102060.06;4852231;29;20437;-51
2022/10/31 09:45:25;;;;;;;4.68;2.95;;;;;;;19.77;58.58;102055.53;4850745;29;20885;-51
2022/10/31 09:48:28;;;;;;;3.83;3.00;;;;;;;19.78;58.26;102047.34;4852869;29;20064;-52
2022/10/31 09:51:00;;;;;;;6.53;3.05;;;;;;;19.79;58.20;102042.81;4858226;29;20054;-52
2022/10/31 09:53:36;;;;;;;5.55;3.92;;;;;;;19.79;58.01;102034.72;4856914;29;20057;-50
2022/10/31 09:56:09;;;;;;;6.40;3.50;;;;;;;19.79;58.35;102038.28;4856121;29;20050;-49
2022/10/31 09:58:42;;;;;;;7.28;3.80;;;;;;;19.80;57.86;102031.03;4850881;29;20466;-50
2022/10/31 10:01:50;;;;;;;5.05;3.00;;;;;;;19.80;58.06;102031.03;4853102;29;20092;-52
2022/10/31 10:04:43;;;;;;;4.50;2.90;;;;;;;19.79;58.06;102026.66;4848856;29;20434;-49
2022/10/31 10:07:43;;;;;;;7.53;3.17;;;;;;;19.79;58.50;102027.50;4849416;29;20081;-50
2022/10/31 10:10:40;;;;;;;4.80;2.95;;;;;;;19.80;58.89;102031.03;4852378;29;20046;-50
2022/10/31 10:13:51;;;;;;;6.38;3.13;;;;;;;19.80;58.26;102028.34;4834279;29;20050;-50
2022/10/31 10:17:09;;;;;;;6.25;3.15;;;;;;;19.80;58.33;102023.81;4848432;29;20056;-49
2022/10/31 10:20:00;;;;;;;6.75;3.40;;;;;;;19.82;58.45;102029.94;4836102;29;20046;-53
2022/10/31 10:22:48;;;;;;;4.93;2.90;;;;;;;19.82;58.68;102031.75;4850296;29;20049;-52
2022/10/31 10:25:31;;;;;;;4.60;3.35;;;;;;;19.81;58.39;102030.91;4853485;29;20053;-51
2022/10/31 10:28:23;;;;;;;5.43;3.10;;;;;;;19.82;59.02;102020.97;4850091;29;20058;-52
2022/10/31 10:31:07;;;;;;;5.78;3.30;;;;;;;19.83;58.83;102010.09;4856771;29;20058;-51
2022/10/31 10:33:40;;;;;;;5.32;3.45;;;;;;;19.86;59.03;102011.66;4850036;29;20056;-52
2022/10/31 10:36:14;;;;;;;6.32;3.50;;;;;;;19.87;58.69;102013.38;4848601;29;20050;-51
2022/10/31 10:38:55;;;;;;;7.95;3.75;;;;;;;19.88;58.52;102007.00;4852936;29;20054;-51
2022/10/31 10:41:23;;;;;;;4.47;3.22;;;;;;;19.90;58.67;101994.25;4848423;29;20418;-53
2022/10/31 10:43:51;;;;;;;6.22;3.67;;;;;;;19.91;58.30;101999.50;4856153;29;20054;-51
2022/10/31 10:49:26;;;;;;;4.78;3.25;;;;;;;19.94;58.31;101974.16;4847656;29;20449;-51
2022/10/31 10:52:08;;;;;;;8.05;3.67;;;;;;;19.95;58.77;101971.31;4848652;29;20227;-52
2022/10/31 10:55:27;;;;;;;6.70;3.83;;;;;;;19.97;58.32;101965.78;4852114;29;20058;-48
2022/10/31 10:58:03;;;;;;;6.35;4.30;;;;;;;19.97;58.72;101958.56;4848231;29;20054;-53
2022/10/31 11:00:34;;;;;;;5.10;3.30;;;;;;;19.99;58.66;101961.13;4854165;29;20082;-51
2022/10/31 11:03:01;;;;;;;4.88;3.65;;;;;;;20.01;58.45;101944.84;4851498;29;20486;-53
2022/10/31 11:05:37;;;;;;;4.85;3.80;;;;;;;20.01;57.82;101950.22;4850533;29;20053;-50
2022/10/31 11:08:05;;;;;;;5.13;3.00;;;;;;;20.01;57.95;101931.38;4855562;29;20049;-50
2022/10/31 11:10:33;;;;;;;4.82;3.25;;;;;;;20.02;57.77;101935.78;4852538;29;20048;-52
2022/10/31 11:13:02;;;;;;;6.20;3.10;;;;;;;20.02;58.55;101925.88;4850936;29;20060;-50
2022/10/31 11:15:36;;;;;;;6.20;3.30;;;;;;;20.01;57.92;101921.47;4848488;29;20106;-53
2022/10/31 11:18:04;;;;;;;;;;;;;;;20.03;57.93;101929.41;4848790;29;20054;-50
2022/10/31 11:20:36;;;;;;;5.97;3.47;;;;;;;20.05;57.97;101928.28;4848929;29;20376;-53
2022/10/31 11:23:24;;;;;;;4.68;3.55;;;;;;;20.04;58.26;101928.41;4850037;29;20550;-52
2022/10/31 11:26:01;;;;;;;5.15;3.00;;;;;;;20.05;57.81;101924.72;4852549;29;20350;-52
2022/10/31 11:28:29;;;;;;;5.43;3.00;;;;;;;20.06;58.30;101926.44;4851735;29;20343;-50
2022/10/31 11:30:58;;;;;;;5.53;3.63;;;;;;;20.05;58.24;101919.34;4857988;29;20056;-51
2022/10/31 11:33:31;;;;;;;5.53;3.70;;;;;;;20.05;57.81;101914.81;4850765;29;20770;-49
2022/10/31 11:35:59;;;;;;;7.25;3.88;;;;;;;20.06;58.28;101913.84;4855421;29;20045;-48
2022/10/31 11:38:42;;;;;;;5.70;4.00;;;;;;;20.07;58.15;101912.84;4856672;29;20348;-51
2022/10/31 11:41:08;;;;;;;5.85;4.20;;;;;;;20.07;58.37;101902.09;4854094;29;20037;-51
2022/10/31 11:43:36;;;;;;;6.68;4.07;;;;;;;20.08;57.71;101897.53;4855740;29;20057;-53
2022/10/31 11:46:11;;;;;;;5.72;3.60;;;;;;;20.09;58.20;101877.72;4854892;29;20064;-50